Time;durP1;ratioP1;P1;durP2;ratioP2;P2;SDS_P1;SDS_P2;PMS_P1;PMS_P2;Temp;Humidity;BMP_temperature;BMP_pressure;BME280_temperature;BME280_humidity;BME280_pressure;Samples;Min_cycle;Max_cycle;Signal;HPM_P1;HPM_P2
2022/11/16 03:46:14;;;;;;;13.07;7.55;;;11.10;99.90;;;;;;5875120;23;93703;-73
2022/11/16 03:48:39;;;;;;;15.13;7.90;;;11.10;99.90;;;;;;4821714;29;87821;-72
2022/11/16 03:51:08;;;;;;;13.18;7.20;;;11.10;99.90;;;;;;4818676;29;87930;-72
2022/11/16 03:53:34;;;;;;;13.63;7.07;;;11.10;99.90;;;;;;4827726;29;87143;-72
2022/11/16 03:56:00;;;;;;;14.27;7.85;;;11.10;99.90;;;;;;4815546;29;88394;-71
2022/11/16 03:58:26;;;;;;;13.38;7.30;;;11.10;99.90;;;;;;4832981;29;86978;-70
2022/11/16 04:00:52;;;;;;;14.50;7.57;;;11.10;99.90;;;;;;4819410;29;88073;-71
2022/11/16 04:03:18;;;;;;;12.63;7.15;;;11.10;99.90;;;;;;4827195;29;89106;-70
2022/11/16 04:25:22;;;;;;;13.13;7.13;;;11.00;99.90;;;;;;4830924;29;87016;-73
2022/11/16 04:38:45;;;;;;;14.07;7.45;;;11.00;99.90;;;;;;4836911;29;86550;-71
2022/11/16 04:42:13;;;;;;;17.10;8.45;;;11.00;99.90;;;;;;4833921;29;87800;-71
2022/11/16 04:43:56;;;;;;;15.55;8.25;;;10.90;99.90;;;;;;4830611;29;86708;-72
2022/11/16 04:49:11;;;;;;;15.25;7.68;;;10.80;99.90;;;;;;4817687;29;86988;-71
2022/11/16 04:51:37;;;;;;;16.33;8.40;;;10.80;99.90;;;;;;4819110;29;87296;-71
2022/11/16 04:54:02;;;;;;;16.48;7.90;;;10.80;99.90;;;;;;4818320;29;86251;-71
2022/11/16 04:56:28;;;;;;;13.07;7.80;;;10.80;99.90;;;;;;4819771;29;88708;-71
2022/11/16 04:58:54;;;;;;;16.55;8.68;;;10.80;99.90;;;;;;4825889;29;88570;-71
2022/11/16 05:02:06;;;;;;;15.25;8.43;;;10.80;99.90;;;;;;4820798;29;86442;-72
2022/11/16 05:04:05;;;;;;;19.52;8.93;;;10.80;99.90;;;;;;4822240;29;87017;-72
2022/11/16 05:06:31;;;;;;;16.58;9.50;;;10.80;99.90;;;;;;4821115;29;87726;-72
2022/11/16 05:08:56;;;;;;;16.17;8.80;;;10.80;99.90;;;;;;4820687;29;87886;-71
2022/11/16 05:11:22;;;;;;;15.80;8.10;;;10.80;99.90;;;;;;4825105;29;86240;-71
2022/11/16 05:13:48;;;;;;;14.48;7.65;;;10.70;99.90;;;;;;4824438;29;88320;-71
2022/11/16 05:16:13;;;;;;;14.80;8.13;;;10.80;99.90;;;;;;4824141;29;87168;-71
2022/11/16 05:18:39;;;;;;;14.65;8.00;;;10.70;99.90;;;;;;4825212;29;87016;-71
2022/11/16 05:21:05;;;;;;;12.48;7.65;;;10.70;99.90;;;;;;4824917;29;86245;-72
2022/11/16 05:26:15;;;;;;;14.25;7.70;;;10.60;99.90;;;;;;4826672;29;86940;-73
2022/11/16 05:28:41;;;;;;;18.00;8.27;;;10.60;99.90;;;;;;4824904;29;86991;-70
2022/11/16 05:31:06;;;;;;;14.80;8.30;;;10.50;99.90;;;;;;4824138;29;87822;-71
2022/11/16 05:33:32;;;;;;;14.38;8.45;;;10.60;99.90;;;;;;4825104;29;86332;-70
2022/11/16 05:35:58;;;;;;;14.85;8.57;;;10.50;99.90;;;;;;4823364;29;86931;-71
2022/11/16 05:38:23;;;;;;;17.20;9.30;;;10.50;99.90;;;;;;4828249;29;86992;-72
2022/11/16 05:40:50;;;;;;;18.17;9.85;;;10.40;99.90;;;;;;4824490;29;86621;-72
2022/11/16 05:43:15;;;;;;;15.85;8.18;;;10.30;99.90;;;;;;4823455;29;86939;-72
2022/11/16 05:45:41;;;;;;;20.30;8.90;;;10.30;99.90;;;;;;4819777;29;87245;-72
2022/11/16 05:48:07;;;;;;;18.98;9.68;;;10.30;99.90;;;;;;4821942;29;87431;-71
2022/11/16 05:50:33;;;;;;;18.98;10.23;;;10.20;99.90;;;;;;4825699;29;86977;-71
2022/11/16 05:52:58;;;;;;;19.15;10.27;;;10.20;99.90;;;;;;4819958;29;86346;-70
2022/11/16 05:55:24;;;;;;;20.40;9.98;;;10.20;99.90;;;;;;4820690;29;88288;-71
2022/11/16 05:57:50;;;;;;;23.63;10.65;;;10.20;99.90;;;;;;4822921;29;88563;-71
2022/11/16 06:00:16;;;;;;;19.45;10.18;;;10.20;99.90;;;;;;4820530;29;86264;-71
2022/11/16 06:02:41;;;;;;;16.50;9.27;;;10.20;99.90;;;;;;4819535;29;86831;-71
2022/11/16 06:05:07;;;;;;;17.58;9.73;;;10.20;99.90;;;;;;4821767;29;86622;-71
2022/11/16 06:07:33;;;;;;;17.00;9.23;;;10.30;99.90;;;;;;4822327;29;86977;-71
2022/11/16 06:09:58;;;;;;;18.13;9.15;;;10.30;99.90;;;;;;4821353;29;86357;-71
2022/11/16 06:12:24;;;;;;;20.15;9.40;;;10.30;99.90;;;;;;4821773;29;85996;-71
2022/11/16 06:14:50;;;;;;;17.23;9.63;;;10.40;99.90;;;;;;4820840;29;87286;-71
2022/11/16 06:17:15;;;;;;;20.77;10.40;;;10.40;99.90;;;;;;4820939;29;86474;-71
2022/11/16 06:19:41;;;;;;;18.50;9.98;;;10.40;99.90;;;;;;4822657;29;87840;-71
2022/11/16 06:22:07;;;;;;;15.82;9.23;;;10.50;99.90;;;;;;4826131;29;86996;-71
2022/11/16 06:24:32;;;;;;;17.35;8.98;;;10.50;99.90;;;;;;4818388;29;87251;-71
2022/11/16 06:26:58;;;;;;;16.75;8.55;;;10.50;99.90;;;;;;4823017;29;87020;-70
2022/11/16 06:29:24;;;;;;;16.85;8.32;;;10.50;99.90;;;;;;4822775;29;86894;-71
2022/11/16 06:31:49;;;;;;;16.80;9.10;;;10.50;99.90;;;;;;4819522;29;86875;-71
2022/11/16 06:34:15;;;;;;;16.17;8.52;;;10.50;99.90;;;;;;4825850;29;86664;-71
2022/11/16 06:36:41;;;;;;;17.48;8.95;;;10.50;99.90;;;;;;4825831;29;87885;-71
2022/11/16 06:39:06;;;;;;;18.40;9.52;;;10.50;99.90;;;;;;4819034;29;87091;-71
2022/11/16 06:41:33;;;;;;;17.83;8.77;;;10.40;99.90;;;;;;4825767;29;86752;-70
2022/11/16 06:43:58;;;;;;;16.05;9.15;;;10.40;99.90;;;;;;4825562;29;88623;-70
2022/11/16 06:46:24;;;;;;;17.23;9.60;;;10.40;99.90;;;;;;4823981;29;87963;-70
2022/11/16 06:48:51;;;;;;;16.92;9.20;;;10.30;99.90;;;;;;4826587;29;86702;-70
2022/11/16 06:51:16;;;;;;;15.13;9.65;;;10.40;99.90;;;;;;4821560;29;86927;-70
2022/11/16 06:53:42;;;;;;;16.05;9.10;;;10.30;99.90;;;;;;4819574;29;86617;-70
2022/11/16 06:56:12;;;;;;;18.05;9.52;;;10.40;99.90;;;;;;4822161;29;86733;-70
2022/11/16 06:58:37;;;;;;;20.15;9.52;;;10.50;99.90;;;;;;4823282;29;86969;-70
2022/11/16 07:01:08;;;;;;;16.63;9.70;;;10.50;99.90;;;;;;4823405;29;85578;-70
2022/11/16 07:03:33;;;;;;;15.35;8.32;;;10.50;99.90;;;;;;4822100;29;87602;-72
2022/11/16 07:06:07;;;;;;;15.35;8.20;;;10.50;99.90;;;;;;4822712;29;86825;-70
2022/11/16 07:08:33;;;;;;;14.30;7.90;;;10.60;99.90;;;;;;4817784;29;88045;-70
2022/11/16 07:11:04;;;;;;;14.90;7.28;;;10.70;99.90;;;;;;4821254;29;87000;-70
2022/11/16 07:13:34;;;;;;;12.20;6.45;;;10.70;99.90;;;;;;4822039;29;87263;-70
2022/11/16 07:16:01;;;;;;;;;;;10.90;99.90;;;;;;4824011;29;87025;-70
2022/11/16 07:18:27;;;;;;;13.23;5.43;;;10.90;99.90;;;;;;4830352;29;86470;-71
2022/11/16 07:20:52;;;;;;;78.75;9.80;;;10.90;99.90;;;;;;4823266;29;87142;-70
2022/11/16 07:23:18;;;;;;;22.63;6.78;;;11.00;99.90;;;;;;4824260;29;88280;-70
2022/11/16 07:25:46;;;;;;;14.88;6.43;;;11.00;99.90;;;;;;4831448;29;87169;-70
2022/11/16 07:28:11;;;;;;;13.40;6.47;;;11.10;99.90;;;;;;4821215;29;86776;-70
2022/11/16 07:30:37;;;;;;;11.38;5.80;;;11.10;99.90;;;;;;4825251;29;86295;-70
2022/11/16 07:33:03;;;;;;;13.13;7.28;;;11.20;99.90;;;;;;4827551;29;88249;-71
2022/11/16 07:35:28;;;;;;;12.77;7.07;;;11.30;99.90;;;;;;4822777;29;87976;-56
2022/11/16 07:37:54;;;;;;;14.00;6.82;;;11.40;99.90;;;;;;4822680;29;86372;-71
2022/11/16 07:47:04;;;;;;;12.63;6.47;;;11.50;99.90;;;;;;3796427;29;95303;-73
2022/11/16 07:49:30;;;;;;;19.13;7.93;;;11.50;99.90;;;;;;4818542;29;86957;-71
2022/11/16 07:51:56;;;;;;;13.35;7.55;;;11.70;99.90;;;;;;4820549;29;86052;-72
2022/11/16 07:54:21;;;;;;;14.32;6.78;;;11.70;99.90;;;;;;4820753;29;88138;-70
2022/11/16 07:56:47;;;;;;;11.95;6.65;;;11.80;99.90;;;;;;4821690;29;87137;-71
2022/11/16 07:59:12;;;;;;;11.55;5.85;;;11.90;99.90;;;;;;4821420;29;87874;-70
2022/11/16 08:01:38;;;;;;;13.15;6.00;;;11.90;99.90;;;;;;4822777;29;86262;-69
2022/11/16 08:04:04;;;;;;;14.85;5.50;;;12.00;99.90;;;;;;4821318;29;87219;-70
2022/11/16 08:06:30;;;;;;;11.27;5.95;;;12.00;99.90;;;;;;4821469;29;86301;-70
2022/11/16 08:08:56;;;;;;;13.85;5.88;;;12.00;99.90;;;;;;4821551;29;87075;-72
2022/11/16 08:11:22;;;;;;;13.00;6.03;;;12.00;99.90;;;;;;4816294;29;86234;-72
2022/11/16 08:13:48;;;;;;;12.52;6.25;;;12.10;99.90;;;;;;4820707;29;86565;-72
2022/11/16 08:16:19;;;;;;;13.05;6.35;;;12.20;99.90;;;;;;4820932;29;87038;-70
2022/11/16 08:18:45;;;;;;;10.27;6.15;;;12.30;99.90;;;;;;4820411;29;87184;-70
2022/11/16 08:21:13;;;;;;;11.20;6.13;;;12.70;99.90;;;;;;4820848;29;86304;-72
2022/11/16 08:23:40;;;;;;;13.05;7.35;;;12.90;99.90;;;;;;4820675;29;88234;-72
2022/11/16 08:26:08;;;;;;;13.02;6.43;;;13.10;98.90;;;;;;4821228;29;87968;-69
2022/11/16 08:28:35;;;;;;;9.02;5.10;;;14.00;96.70;;;;;;4817900;29;86421;-72
2022/11/16 08:31:11;;;;;;;11.63;5.35;;;16.00;91.30;;;;;;4822347;29;86671;-72
2022/11/16 08:33:37;;;;;;;10.77;5.82;;;17.10;85.70;;;;;;4823767;29;87344;-69
2022/11/16 08:36:08;;;;;;;11.20;5.97;;;16.90;85.40;;;;;;4824257;29;87390;-70
2022/11/16 08:38:34;;;;;;;11.60;6.25;;;16.50;83.10;;;;;;4825349;29;86814;-71
2022/11/16 08:40:59;;;;;;;11.48;6.03;;;15.90;87.00;;;;;;4824856;29;86109;-72
2022/11/16 08:43:25;;;;;;;9.63;6.20;;;15.50;87.10;;;;;;4824766;29;86618;-71
2022/11/16 08:45:52;;;;;;;12.02;6.68;;;15.10;88.30;;;;;;4822916;29;87186;-72
2022/11/16 08:48:18;;;;;;;11.23;6.15;;;14.80;90.00;;;;;;4823209;29;87739;-70
2022/11/16 08:50:44;;;;;;;12.73;6.53;;;14.60;90.40;;;;;;4824205;29;86801;-69
2022/11/16 08:53:10;;;;;;;14.43;6.30;;;14.40;90.50;;;;;;4824161;29;87119;-70
2022/11/16 08:55:36;;;;;;;11.73;6.45;;;14.20;90.60;;;;;;4804176;29;88208;-72
2022/11/16 08:58:01;;;;;;;11.15;6.72;;;14.00;91.30;;;;;;4824417;29;86764;-72
2022/11/16 09:00:27;;;;;;;10.93;6.00;;;13.90;91.70;;;;;;4824471;29;86822;-71
2022/11/16 09:02:53;;;;;;;13.55;6.70;;;13.90;91.60;;;;;;4824320;29;88531;-72
2022/11/16 09:05:19;;;;;;;8.85;5.43;;;13.90;92.10;;;;;;4824182;29;87843;-72
2022/11/16 09:07:45;;;;;;;15.95;8.30;;;13.90;92.10;;;;;;4824342;29;86825;-72
2022/11/16 09:10:11;;;;;;;10.65;5.72;;;13.90;92.40;;;;;;4824805;29;86900;-71
2022/11/16 09:12:37;;;;;;;12.10;6.60;;;13.90;92.20;;;;;;4822999;29;88156;-72
2022/11/16 09:15:04;;;;;;;10.27;6.00;;;13.70;92.80;;;;;;4824026;29;87109;-70
2022/11/16 09:17:30;;;;;;;11.55;6.10;;;13.60;92.80;;;;;;4823591;29;86501;-70
2022/11/16 09:19:56;;;;;;;12.15;7.60;;;13.60;92.70;;;;;;4823667;29;86619;-71
2022/11/16 09:22:22;;;;;;;17.08;9.73;;;13.60;93.20;;;;;;4824402;29;88279;-71
2022/11/16 09:24:47;;;;;;;14.05;6.03;;;13.60;93.30;;;;;;4824208;29;87548;-71
2022/11/16 09:27:13;;;;;;;11.82;6.22;;;13.70;92.50;;;;;;4824098;29;86441;-70
2022/11/16 09:29:39;;;;;;;11.63;5.88;;;13.70;92.80;;;;;;4824056;29;86103;-71
2022/11/16 09:32:05;;;;;;;11.20;6.00;;;13.70;93.00;;;;;;4820162;29;87114;-70
2022/11/16 09:34:33;;;;;;;9.20;5.88;;;13.70;93.20;;;;;;4824325;29;87969;-71
2022/11/16 09:36:59;;;;;;;9.70;5.22;;;13.80;93.30;;;;;;4823851;29;87788;-71
2022/11/16 09:39:26;;;;;;;11.68;5.78;;;13.90;94.10;;;;;;4824166;29;86809;-71
2022/11/16 09:42:05;;;;;;;9.10;4.78;;;14.20;93.80;;;;;;4823683;29;86653;-72
2022/11/16 09:44:36;;;;;;;9.43;5.32;;;14.50;92.30;;;;;;4823521;29;86353;-71
2022/11/16 09:47:07;;;;;;;10.75;4.93;;;15.00;91.10;;;;;;4823544;29;86667;-72
2022/11/16 09:49:41;;;;;;;9.40;5.15;;;15.10;90.20;;;;;;4821254;29;86755;-71
2022/11/16 09:52:32;;;;;;;7.30;4.13;;;15.60;89.90;;;;;;4823477;29;86736;-72
2022/11/16 09:55:02;;;;;;;8.13;4.13;;;18.00;83.50;;;;;;4816167;29;86131;-71
2022/11/16 09:57:33;;;;;;;6.68;3.78;;;20.10;75.70;;;;;;4823563;29;87236;-71
2022/11/16 10:00:08;;;;;;;6.90;3.63;;;20.40;69.40;;;;;;4823785;29;86928;-71
2022/11/16 10:02:57;;;;;;;8.52;3.90;;;20.40;70.00;;;;;;4820088;29;89876;-71
2022/11/16 10:05:29;;;;;;;5.53;3.20;;;19.90;68.10;;;;;;4803140;29;88325;-71
2022/11/16 10:08:11;;;;;;;7.18;3.28;;;19.10;70.60;;;;;;4823785;29;86584;-71
2022/11/16 10:10:41;;;;;;;6.80;3.47;;;18.40;71.70;;;;;;4823322;29;86810;-72
2022/11/16 10:13:36;;;;;;;6.88;3.40;;;17.90;74.10;;;;;;4823053;29;87750;-71
2022/11/16 10:16:30;;;;;;;8.95;3.50;;;17.30;76.20;;;;;;4823067;29;86811;-73
2022/11/16 10:19:06;;;;;;;6.50;3.40;;;17.20;77.10;;;;;;4822246;29;86682;-69
2022/11/16 10:21:50;;;;;;;5.35;3.25;;;17.10;77.80;;;;;;4823642;29;86387;-71
2022/11/16 10:24:41;;;;;;;5.90;2.78;;;17.20;78.90;;;;;;4823247;29;87748;-70
2022/11/16 10:27:44;;;;;;;9.40;3.35;;;17.30;75.60;;;;;;4821973;29;86261;-73
2022/11/16 10:30:18;;;;;;;6.22;3.10;;;17.00;78.40;;;;;;4799657;29;87944;-71
2022/11/16 10:32:44;;;;;;;7.00;3.45;;;16.60;79.20;;;;;;4820778;29;86271;-71
2022/11/16 10:35:09;;;;;;;8.02;3.05;;;16.60;80.10;;;;;;4823146;29;87859;-69
2022/11/16 10:37:42;;;;;;;5.72;3.05;;;16.60;80.30;;;;;;4823401;29;87098;-71
2022/11/16 10:40:20;;;;;;;6.68;3.72;;;16.40;81.80;;;;;;4823259;29;87132;-71
2022/11/16 10:42:56;;;;;;;6.00;3.05;;;16.40;83.40;;;;;;4822918;29;86262;-71
2022/11/16 10:45:30;;;;;;;7.00;3.55;;;16.40;81.50;;;;;;4822565;29;87295;-71
2022/11/16 10:48:35;;;;;;;5.53;2.95;;;16.00;81.60;;;;;;4822671;29;86939;-71
2022/11/16 10:51:02;;;;;;;6.20;3.03;;;15.70;83.90;;;;;;4823475;29;87037;-70
2022/11/16 10:53:40;;;;;;;5.68;2.80;;;15.70;83.30;;;;;;4822023;29;86353;-71
2022/11/16 10:56:24;;;;;;;6.82;2.72;;;15.50;83.80;;;;;;4823455;29;87771;-71
2022/11/16 10:58:51;;;;;;;5.97;3.00;;;15.40;85.10;;;;;;4823193;29;87857;-70
2022/11/16 11:01:36;;;;;;;5.22;2.85;;;15.30;87.20;;;;;;4822445;29;86966;-72
2022/11/16 11:04:22;;;;;;;6.25;2.95;;;15.30;87.00;;;;;;4823632;29;86246;-72
2022/11/16 11:06:54;;;;;;;11.13;3.13;;;15.20;86.60;;;;;;4822776;29;87287;-71
2022/11/16 11:09:35;;;;;;;6.95;3.17;;;15.20;87.70;;;;;;4820933;29;87160;-70
2022/11/16 11:15:01;;;;;;;5.85;2.42;;;15.50;85.70;;;;;;4815104;29;86483;-73
2022/11/16 11:17:27;;;;;;;3.92;0.95;;;15.60;85.70;;;;;;4817586;29;87851;-71
2022/11/16 11:20:02;;;;;;;5.38;1.27;;;15.60;82.00;;;;;;4818312;29;86939;-72
2022/11/16 11:22:29;;;;;;;3.63;1.50;;;15.50;80.60;;;;;;4817415;29;89039;-72
2022/11/16 11:24:55;;;;;;;2.03;0.60;;;15.30;80.50;;;;;;4820522;29;88269;-72
2022/11/16 11:27:25;;;;;;;3.40;1.13;;;15.30;81.50;;;;;;4819130;29;86994;-69
2022/11/16 11:29:54;;;;;;;2.28;0.68;;;15.30;82.70;;;;;;4817369;29;87722;-72
2022/11/16 11:32:22;;;;;;;3.38;1.13;;;15.40;81.00;;;;;;4818286;29;87037;-70
2022/11/16 11:34:53;;;;;;;2.70;0.90;;;15.50;80.80;;;;;;4818860;29;86940;-72
2022/11/16 11:37:34;;;;;;;5.60;1.20;;;15.60;81.10;;;;;;4820454;29;87271;-71
2022/11/16 11:40:08;;;;;;;2.72;0.75;;;15.70;80.30;;;;;;4819747;29;86119;-72
2022/11/16 11:42:37;;;;;;;2.33;0.82;;;15.80;79.20;;;;;;4820292;29;86879;-71
2022/11/16 11:45:07;;;;;;;2.65;0.80;;;15.90;79.00;;;;;;4818984;29;86300;-71
2022/11/16 11:47:54;;;;;;;3.35;0.95;;;15.90;79.50;;;;;;4819915;29;88226;-71
2022/11/16 11:50:35;;;;;;;4.20;1.00;;;16.00;77.10;;;;;;4818159;29;87461;-72
2022/11/16 11:53:25;;;;;;;3.13;0.93;;;16.10;79.00;;;;;;4816657;29;87081;-71
2022/11/16 11:55:56;;;;;;;2.25;0.70;;;16.10;77.30;;;;;;4821423;29;86658;-71
2022/11/16 11:58:28;;;;;;;2.95;0.60;;;16.20;78.20;;;;;;4817912;29;87015;-72
2022/11/16 12:01:30;;;;;;;2.28;1.08;;;16.10;76.50;;;;;;4816923;29;88009;-71
2022/11/16 12:04:20;;;;;;;2.55;0.93;;;16.00;76.40;;;;;;4815549;29;86865;-70
2022/11/16 12:06:55;;;;;;;3.03;0.93;;;15.80;77.10;;;;;;4812434;29;86045;-72
2022/11/16 12:09:40;;;;;;;3.33;0.68;;;15.70;77.20;;;;;;4813999;29;87290;-71
2022/11/16 12:12:35;;;;;;;3.13;0.70;;;15.50;77.70;;;;;;4818082;29;86340;-71
2022/11/16 12:15:20;;;;;;;1.60;0.60;;;15.50;78.40;;;;;;4812904;29;87200;-71
2022/11/16 12:18:06;;;;;;;1.80;0.40;;;15.40;79.30;;;;;;4817153;29;87967;-72
2022/11/16 12:20:56;;;;;;;2.22;0.43;;;15.40;77.50;;;;;;4822836;29;88003;-72
2022/11/16 12:23:38;;;;;;;1.70;0.40;;;15.40;78.70;;;;;;4819185;29;87060;-71
2022/11/16 12:26:25;;;;;;;2.75;0.43;;;15.30;79.20;;;;;;4819453;29;86728;-72
2022/11/16 12:29:15;;;;;;;2.97;0.52;;;15.30;78.70;;;;;;4819611;29;86947;-72
2022/11/16 12:32:01;;;;;;;4.38;0.85;;;15.40;79.30;;;;;;4820778;29;86626;-72
2022/11/16 12:34:48;;;;;;;1.73;0.30;;;15.30;78.50;;;;;;4815126;29;86392;-71
2022/11/16 12:37:38;;;;;;;3.10;0.50;;;15.20;78.10;;;;;;4819828;29;86923;-72
2022/11/16 12:40:22;;;;;;;2.10;0.38;;;15.00;78.40;;;;;;4818851;29;87073;-71
2022/11/16 12:42:54;;;;;;;5.15;0.40;;;14.80;79.30;;;;;;4818441;29;89300;-70
2022/11/16 12:45:40;;;;;;;4.85;0.30;;;14.70;79.50;;;;;;4819806;29;87081;-71
2022/11/16 12:48:36;;;;;;;3.15;0.43;;;14.80;80.40;;;;;;4818824;29;87086;-72
2022/11/16 12:51:26;;;;;;;3.47;0.52;;;14.90;80.60;;;;;;4818921;29;86911;-72
2022/11/16 12:54:01;;;;;;;2.17;0.40;;;15.00;79.80;;;;;;4812615;29;87435;-71
2022/11/16 12:56:42;;;;;;;2.35;0.52;;;15.00;80.10;;;;;;4819530;29;87349;-71
2022/11/16 12:59:23;;;;;;;3.85;0.52;;;15.00;81.00;;;;;;4820462;29;86679;-71
2022/11/16 13:02:10;;;;;;;3.97;0.60;;;14.90;80.10;;;;;;4813433;29;85477;-71
2022/11/16 13:04:44;;;;;;;3.17;0.50;;;14.70;80.40;;;;;;4815938;29;86943;-71
2022/11/16 13:07:34;;;;;;;1.40;0.30;;;14.70;81.60;;;;;;4818885;29;87069;-72
2022/11/16 13:10:12;;;;;;;1.60;0.50;;;14.60;81.20;;;;;;4810840;29;87358;-72
2022/11/16 13:12:38;;;;;;;2.03;0.32;;;14.60;82.00;;;;;;4818302;29;87485;-72
2022/11/16 13:15:10;;;;;;;2.60;0.50;;;14.60;82.40;;;;;;4818123;29;90211;-72
2022/11/16 13:17:37;;;;;;;1.88;0.60;;;14.50;82.60;;;;;;4821170;29;86672;-73
2022/11/16 13:20:24;;;;;;;5.88;0.63;;;14.40;82.80;;;;;;4822757;29;86308;-72
2022/11/16 13:23:03;;;;;;;6.50;1.10;;;14.30;83.40;;;;;;4821759;29;86179;-73
2022/11/16 13:25:49;;;;;;;8.05;2.17;;;14.20;84.00;;;;;;4821472;29;87262;-72
2022/11/16 13:28:33;;;;;;;3.72;1.02;;;14.30;84.10;;;;;;4821736;29;86183;-72
2022/11/16 13:31:37;;;;;;;2.22;0.52;;;14.20;84.60;;;;;;4821854;29;86445;-72
2022/11/16 13:34:14;;;;;;;2.05;0.43;;;14.30;85.30;;;;;;4821742;29;87095;-71
2022/11/16 13:36:43;;;;;;;3.70;0.50;;;14.40;85.10;;;;;;4822343;29;88788;-72
2022/11/16 13:39:12;;;;;;;2.28;0.52;;;14.40;84.30;;;;;;4821811;29;88785;-71
2022/11/16 13:41:49;;;;;;;3.25;1.00;;;14.40;84.20;;;;;;4821748;29;87660;-71
2022/11/16 13:44:19;;;;;;;2.20;0.63;;;14.40;84.20;;;;;;4820694;29;86378;-72
2022/11/16 13:46:48;;;;;;;5.22;0.50;;;14.40;84.00;;;;;;4821223;29;88527;-72
2022/11/16 13:49:36;;;;;;;3.22;0.68;;;14.50;85.20;;;;;;4821667;29;87320;-72
2022/11/16 13:52:10;;;;;;;10.07;4.85;;;14.60;83.80;;;;;;4819991;29;86684;-71
2022/11/16 13:54:39;;;;;;;3.45;1.25;;;14.60;83.70;;;;;;4818204;29;86414;-73
2022/11/16 13:57:37;;;;;;;5.22;1.70;;;14.50;83.70;;;;;;4821115;29;88013;-72
2022/11/16 14:00:03;;;;;;;5.03;1.23;;;14.60;83.10;;;;;;4778207;29;87679;-72
2022/11/16 14:02:35;;;;;;;2.47;1.00;;;14.60;82.60;;;;;;4821913;29;88131;-71
2022/11/16 14:05:22;;;;;;;4.18;1.50;;;14.70;81.40;;;;;;4820018;29;86623;-71
2022/11/16 14:07:49;;;;;;;3.92;1.30;;;14.60;81.30;;;;;;4808693;29;88684;-70
2022/11/16 14:10:43;;;;;;;5.63;1.77;;;14.60;82.00;;;;;;4820092;29;86961;-71
2022/11/16 14:13:42;;;;;;;3.05;1.13;;;14.50;83.10;;;;;;4794864;29;86796;-72
2022/11/16 14:16:18;;;;;;;4.00;0.95;;;14.40;82.80;;;;;;4818752;29;87253;-72
2022/11/16 14:18:45;;;;;;;3.10;0.90;;;14.20;82.60;;;;;;4821537;29;87642;-72
2022/11/16 14:21:38;;;;;;;3.55;0.82;;;14.00;83.30;;;;;;4821011;29;87353;-71
2022/11/16 14:24:13;;;;;;;4.30;1.33;;;13.90;84.30;;;;;;4819206;29;87214;-72
2022/11/16 14:26:47;;;;;;;3.33;1.02;;;13.80;84.70;;;;;;4822226;29;86441;-71
2022/11/16 14:29:14;;;;;;;2.65;0.80;;;13.70;85.40;;;;;;4821913;29;87622;-71
2022/11/16 14:31:53;;;;;;;3.30;0.88;;;13.50;85.60;;;;;;4822663;29;87130;-71
2022/11/16 14:34:41;;;;;;;5.40;1.13;;;13.50;86.20;;;;;;4822039;29;86243;-71
2022/11/16 14:37:27;;;;;;;5.75;1.80;;;13.50;86.40;;;;;;4822303;29;86486;-71
2022/11/16 14:40:03;;;;;;;6.45;2.30;;;13.50;86.50;;;;;;4822548;29;86721;-71
2022/11/16 14:42:32;;;;;;;7.53;2.28;;;13.50;87.40;;;;;;4822891;29;86902;-71
2022/11/16 14:45:10;;;;;;;9.45;3.15;;;13.60;87.90;;;;;;4823139;29;86714;-72
2022/11/16 14:47:36;;;;;;;9.07;1.92;;;13.60;88.70;;;;;;4816634;29;85554;-71
2022/11/16 14:50:03;;;;;;;5.65;1.98;;;13.70;88.20;;;;;;4822721;29;86544;-71
2022/11/16 14:52:38;;;;;;;6.40;1.80;;;13.70;87.60;;;;;;4822808;29;86994;-72
2022/11/16 14:55:07;;;;;;;5.18;1.75;;;13.60;86.90;;;;;;4822067;29;89835;-72
2022/11/16 14:57:33;;;;;;;7.45;2.25;;;13.50;87.00;;;;;;4822986;29;86895;-72
2022/11/16 15:00:06;;;;;;;3.90;1.08;;;13.50;87.20;;;;;;4822489;29;86975;-71
2022/11/16 15:02:33;;;;;;;5.20;0.82;;;13.40;86.30;;;;;;4822880;29;87164;-72
2022/11/16 15:04:59;;;;;;;12.88;1.65;;;13.20;87.80;;;;;;4822197;29;86895;-71
2022/11/16 15:07:27;;;;;;;4.63;1.70;;;13.10;88.40;;;;;;4822788;29;86286;-71
2022/11/16 15:09:57;;;;;;;2.75;1.00;;;13.00;88.20;;;;;;4822655;29;88356;-71
2022/11/16 15:12:42;;;;;;;4.93;1.33;;;12.90;88.40;;;;;;4822425;29;86904;-71
2022/11/16 15:15:11;;;;;;;4.40;0.93;;;12.80;88.50;;;;;;4822250;29;86323;-71
2022/11/16 15:17:50;;;;;;;4.95;1.48;;;12.70;88.90;;;;;;4822753;29;87011;-71
2022/11/16 15:20:22;;;;;;;4.40;0.82;;;12.60;89.60;;;;;;4821779;29;88788;-71
2022/11/16 15:22:51;;;;;;;3.50;1.27;;;12.40;90.00;;;;;;4822263;29;87120;-71
2022/11/16 15:25:23;;;;;;;4.82;1.10;;;12.40;90.10;;;;;;4821601;29;86493;-71
2022/11/16 15:27:49;;;;;;;3.58;1.00;;;12.20;90.50;;;;;;4816185;29;86373;-71
2022/11/16 15:30:19;;;;;;;3.90;1.50;;;12.10;90.60;;;;;;4822205;29;87369;-70
2022/11/16 15:32:47;;;;;;;5.88;1.42;;;12.00;90.50;;;;;;4822256;29;86926;-71
2022/11/16 15:35:22;;;;;;;9.80;2.53;;;11.90;90.60;;;;;;4821631;29;87008;-71
2022/11/16 15:38:10;;;;;;;6.20;2.08;;;11.90;91.00;;;;;;4821784;29;85943;-71
2022/11/16 15:40:36;;;;;;;5.40;1.48;;;11.70;91.20;;;;;;4820377;29;86799;-71
2022/11/16 15:43:05;;;;;;;9.07;2.03;;;11.60;91.90;;;;;;4822499;29;86246;-71
2022/11/16 15:45:31;;;;;;;13.65;3.22;;;11.50;91.90;;;;;;4822537;29;87213;-71
2022/11/16 15:48:00;;;;;;;7.53;2.33;;;11.50;91.90;;;;;;4822246;29;88161;-71
2022/11/16 15:50:26;;;;;;;9.55;3.13;;;11.40;91.90;;;;;;4823639;29;86730;-72
2022/11/16 15:52:58;;;;;;;19.20;7.75;;;11.30;92.00;;;;;;4820597;29;86469;-71
2022/11/16 15:55:35;;;;;;;14.90;5.10;;;11.30;92.10;;;;;;4821926;29;87648;-71
2022/11/16 15:58:25;;;;;;;13.25;5.40;;;11.20;92.30;;;;;;4821948;29;87374;-72
2022/11/16 16:00:53;;;;;;;17.80;7.55;;;11.10;92.30;;;;;;4823843;29;87494;-72
2022/11/16 16:03:25;;;;;;;16.40;6.50;;;11.00;92.50;;;;;;4820877;29;87120;-71
2022/11/16 16:05:51;;;;;;;12.45;4.65;;;10.90;92.90;;;;;;4819614;29;86835;-71
2022/11/16 16:08:25;;;;;;;10.63;5.03;;;10.80;93.50;;;;;;4819770;29;86286;-72
2022/11/16 16:11:07;;;;;;;9.25;3.75;;;10.70;93.70;;;;;;4821531;29;87794;-71
2022/11/16 16:13:57;;;;;;;18.95;7.10;;;10.60;93.90;;;;;;4818400;29;88214;-71
2022/11/16 16:16:28;;;;;;;20.58;6.05;;;10.40;94.30;;;;;;4815702;29;86941;-71
2022/11/16 16:18:57;;;;;;;27.70;8.18;;;10.40;94.20;;;;;;4817810;29;87476;-71
2022/11/16 16:21:23;;;;;;;72.80;28.60;;;10.40;94.70;;;;;;4817464;29;87302;-71
2022/11/16 16:23:54;;;;;;;53.10;19.38;;;10.30;95.10;;;;;;4816595;29;87492;-72
2022/11/16 16:26:21;;;;;;;27.50;9.82;;;10.30;95.70;;;;;;4811669;29;88392;-72
2022/11/16 16:28:47;;;;;;;36.05;13.05;;;10.30;96.00;;;;;;4817831;29;86138;-71
2022/11/16 16:31:15;;;;;;;32.97;11.95;;;10.30;95.90;;;;;;4816315;29;88061;-71
2022/11/16 16:33:41;;;;;;;87.15;30.48;;;10.20;95.80;;;;;;4816805;29;86871;-72
2022/11/16 16:36:10;;;;;;;94.50;32.65;;;10.20;95.80;;;;;;4813295;29;88011;-71
2022/11/16 16:41:57;;;;;;;281.70;72.88;;;10.00;96.00;;;;;;4813386;29;86736;-71
2022/11/16 16:44:23;;;;;;;46.53;13.05;;;10.00;96.50;;;;;;4817420;29;89201;-72
2022/11/16 16:46:49;;;;;;;20.45;5.45;;;9.90;96.70;;;;;;4808905;29;86467;-71
2022/11/16 16:49:14;;;;;;;64.93;15.85;;;9.90;96.70;;;;;;4814877;29;87749;-71
2022/11/16 16:51:40;;;;;;;26.23;6.90;;;9.90;96.80;;;;;;4816571;29;86808;-71
2022/11/16 16:54:05;;;;;;;28.23;7.03;;;9.90;96.80;;;;;;4823051;29;86726;-72
2022/11/16 16:56:31;;;;;;;23.90;5.93;;;9.90;96.40;;;;;;4822258;29;87110;-72
2022/11/16 16:58:57;;;;;;;14.57;4.55;;;9.90;96.40;;;;;;4826401;29;86818;-71
2022/11/16 17:01:22;;;;;;;11.77;2.88;;;9.80;96.60;;;;;;4821771;29;88615;-72
2022/11/16 17:03:48;;;;;;;13.57;2.25;;;9.80;97.10;;;;;;4823479;29;87208;-72
2022/11/16 17:06:14;;;;;;;15.07;2.92;;;9.80;96.90;;;;;;4819524;29;88054;-71
2022/11/16 17:08:39;;;;;;;8.43;2.30;;;9.80;97.20;;;;;;4824856;29;87049;-71
2022/11/16 17:11:05;;;;;;;25.65;7.22;;;9.70;98.60;;;;;;4818854;29;87229;-71
2022/11/16 17:13:31;;;;;;;19.95;7.60;;;9.70;97.80;;;;;;4824124;29;86801;-71
2022/11/16 17:15:56;;;;;;;17.05;6.70;;;9.60;98.00;;;;;;4818795;29;86620;-71
2022/11/16 17:18:22;;;;;;;27.05;7.63;;;9.60;98.20;;;;;;4821624;29;87176;-71
2022/11/16 17:20:48;;;;;;;19.48;7.75;;;9.50;98.40;;;;;;4819640;29;87728;-71
2022/11/16 17:23:14;;;;;;;13.73;6.00;;;9.50;98.50;;;;;;4822973;29;87636;-71
2022/11/16 17:25:40;;;;;;;20.90;6.38;;;9.50;99.50;;;;;;4823259;29;88257;-71
2022/11/16 17:28:05;;;;;;;12.60;5.25;;;9.50;99.90;;;;;;4822628;29;87151;-71
2022/11/16 17:30:31;;;;;;;16.58;4.43;;;9.50;99.90;;;;;;4819231;29;87077;-71
2022/11/16 17:32:56;;;;;;;11.70;4.05;;;9.50;99.90;;;;;;4822457;29;87073;-71
2022/11/16 17:35:22;;;;;;;9.43;4.38;;;9.50;99.90;;;;;;4822301;29;86972;-71
2022/11/16 17:37:48;;;;;;;8.57;4.13;;;9.50;99.90;;;;;;4820732;29;86963;-71
2022/11/16 17:40:14;;;;;;;12.18;4.50;;;9.40;99.90;;;;;;4822459;29;87741;-71